createdAt,value
2023-03-18T00:00:56.327Z,12.3
2023-03-18T00:01:59.978Z,12.3
2023-03-18T00:03:03.360Z,12.3
2023-03-18T00:04:07.086Z,12.3
2023-03-18T00:05:10.886Z,12.3
2023-03-18T00:06:14.086Z,12.3
2023-03-18T00:07:17.465Z,12.3
2023-03-18T00:08:21.057Z,12.3
2023-03-18T00:09:24.862Z,12.3
2023-03-18T00:10:27.797Z,12.3
2023-03-18T00:11:30.804Z,12.3
2023-03-18T00:12:33.671Z,12.3
2023-03-18T00:13:36.842Z,12.3
2023-03-18T00:14:39.870Z,12.3
2023-03-18T00:15:43.067Z,12.3
2023-03-18T00:16:46.418Z,12.3
2023-03-18T00:17:49.866Z,12.3
2023-03-18T00:18:53.233Z,12.3
2023-03-18T00:19:56.600Z,12.3
2023-03-18T00:20:59.161Z,12.3
2023-03-18T00:22:02.574Z,12.3
2023-03-18T00:23:06.043Z,12.3
2023-03-18T00:24:09.699Z,12.3
2023-03-18T00:25:13.504Z,12.3
2023-03-18T00:26:16.819Z,12.2
2023-03-18T00:27:19.622Z,12.2
2023-03-18T00:28:22.703Z,12.2
2023-03-18T00:29:26.079Z,12.2
2023-03-18T00:30:28.893Z,12.2
2023-03-18T00:31:33.260Z,12.2
2023-03-18T00:32:36.762Z,12.2
2023-03-18T00:33:40.264Z,12.1
2023-03-18T00:34:43.307Z,12.1
2023-03-18T00:35:46.258Z,12.1
2023-03-18T00:36:49.238Z,12.1
2023-03-18T00:37:52.044Z,12.1
2023-03-18T00:38:55.029Z,12.1
2023-03-18T00:39:58.307Z,12.1
2023-03-18T00:41:01.912Z,12.1
2023-03-18T00:42:05.395Z,12.1
2023-03-18T00:43:08.361Z,12.1
2023-03-18T00:44:11.651Z,12.2
2023-03-18T00:45:15.070Z,12.2
2023-03-18T00:46:19.148Z,12.2
2023-03-18T00:47:23.023Z,12.2
2023-03-18T00:48:26.554Z,12.2
2023-03-18T00:49:29.003Z,12.1
2023-03-18T00:50:32.790Z,12.1
2023-03-18T00:51:36.800Z,12.1
2023-03-18T00:52:39.960Z,12.1
2023-03-18T00:53:43.317Z,12.1
2023-03-18T00:54:46.590Z,12.1
2023-03-18T00:55:50.507Z,12.1
2023-03-18T00:56:54.272Z,12.1
2023-03-18T00:57:57.679Z,12.1
2023-03-18T00:59:00.798Z,12.1
2023-03-18T01:00:04.231Z,12.1
2023-03-18T01:01:07.243Z,12.1
2023-03-18T01:02:10.386Z,12.1
2023-03-18T01:03:13.762Z,12.1
2023-03-18T01:04:17.440Z,12.1
2023-03-18T01:05:20.877Z,12
2023-03-18T01:06:24.286Z,12
2023-03-18T01:07:26.733Z,12
2023-03-18T01:08:30.160Z,12
2023-03-18T01:09:32.626Z,12
2023-03-18T01:10:35.787Z,12
2023-03-18T01:11:39.191Z,12
2023-03-18T01:12:42.432Z,12
2023-03-18T01:13:45.559Z,12
2023-03-18T01:14:48.297Z,12
2023-03-18T01:15:51.102Z,12
2023-03-18T01:16:54.727Z,12
2023-03-18T01:17:57.293Z,12
2023-03-18T01:19:00.140Z,12
2023-03-18T01:20:03.294Z,12
2023-03-18T01:21:06.747Z,12
2023-03-18T01:22:09.502Z,12
2023-03-18T01:23:12.690Z,12
2023-03-18T01:24:15.783Z,12
2023-03-18T01:25:19.523Z,12
2023-03-18T01:26:22.985Z,12
2023-03-18T01:27:26.370Z,12
2023-03-18T01:28:30.559Z,12
2023-03-18T01:29:33.940Z,12
2023-03-18T01:30:37.726Z,12
2023-03-18T01:31:41.130Z,12
2023-03-18T01:32:44.317Z,12
2023-03-18T01:33:47.834Z,12
2023-03-18T01:34:51.277Z,12
2023-03-18T01:35:54.720Z,12
2023-03-18T01:36:58.070Z,12
2023-03-18T01:38:01.055Z,12
2023-03-18T01:39:04.355Z,12
2023-03-18T01:40:06.852Z,12
2023-03-18T01:41:09.709Z,12
2023-03-18T01:42:13.003Z,12
2023-03-18T01:43:16.784Z,12
2023-03-18T01:44:20.900Z,12
2023-03-18T01:45:24.253Z,12
2023-03-18T01:46:27.849Z,12
2023-03-18T01:47:30.296Z,12
2023-03-18T01:48:32.718Z,12
2023-03-18T01:49:36.365Z,12
2023-03-18T01:50:39.596Z,12
2023-03-18T01:51:42.998Z,12.1
2023-03-18T01:52:46.027Z,12.1
2023-03-18T01:53:48.329Z,12.1
2023-03-18T01:54:51.154Z,12.1
2023-03-18T01:55:53.732Z,12.1
2023-03-18T01:56:56.540Z,12.1
2023-03-18T01:57:59.973Z,12.1
2023-03-18T01:59:03.992Z,12.1
2023-03-18T02:00:07.892Z,12.1
2023-03-18T02:01:10.943Z,12.1
2023-03-18T02:02:14.178Z,12.1
2023-03-18T02:03:16.703Z,12.1
2023-03-18T02:04:20.081Z,12.1
2023-03-18T02:05:23.548Z,12.2
2023-03-18T02:06:27.026Z,12.2
2023-03-18T02:07:29.723Z,12.2
2023-03-18T02:08:32.450Z,12.2
2023-03-18T02:09:35.963Z,12.2
2023-03-18T02:10:39.703Z,12.2
2023-03-18T02:11:42.966Z,12.3
2023-03-18T02:12:45.712Z,12.3
2023-03-18T02:13:48.719Z,12.3
2023-03-18T02:14:52.124Z,12.3
2023-03-18T02:15:55.447Z,12.4
2023-03-18T02:16:58.200Z,12.3
2023-03-18T02:18:02.153Z,12.3
2023-03-18T02:19:04.928Z,12.4
2023-03-18T02:20:07.995Z,12.4
2023-03-18T02:21:10.906Z,12.4
2023-03-18T02:22:15.068Z,12.4
2023-03-18T02:23:18.478Z,12.4
2023-03-18T02:24:21.194Z,12.5
2023-03-18T02:25:23.928Z,12.5
2023-03-18T02:26:27.300Z,12.5
2023-03-18T02:27:30.377Z,12.4
2023-03-18T02:28:33.824Z,12.4
2023-03-18T02:29:37.272Z,12.4
2023-03-18T02:30:40.542Z,12.4
2023-03-18T02:31:44.638Z,12.3
2023-03-18T02:32:48.518Z,12.3
2023-03-18T02:33:51.981Z,12.3
2023-03-18T02:34:54.976Z,12.3
2023-03-18T02:35:58.113Z,12.3
2023-03-18T02:37:01.304Z,12.3
2023-03-18T02:38:05.326Z,12.2
2023-03-18T02:39:08.756Z,12.2
2023-03-18T02:40:11.949Z,12.2
2023-03-18T02:41:15.726Z,12.1
2023-03-18T02:42:18.159Z,12.1
2023-03-18T02:43:21.575Z,12.1
2023-03-18T02:44:23.793Z,12
2023-03-18T02:45:27.146Z,12
2023-03-18T02:46:31.495Z,12
2023-03-18T02:47:35.332Z,11.9
2023-03-18T02:48:38.980Z,12
2023-03-18T02:49:42.060Z,11.9
2023-03-18T02:50:45.072Z,11.9
2023-03-18T02:51:48.295Z,11.8
2023-03-18T02:52:51.384Z,11.8
2023-03-18T02:53:54.402Z,11.8
2023-03-18T02:54:56.552Z,11.8
2023-03-18T02:55:59.622Z,11.8
2023-03-18T02:57:02.647Z,11.8
2023-03-18T02:58:06.040Z,11.8
2023-03-18T02:59:09.435Z,11.7
2023-03-18T03:00:12.167Z,11.7
2023-03-18T03:01:14.842Z,11.7
2023-03-18T03:02:17.728Z,11.7
2023-03-18T03:03:22.092Z,11.7
2023-03-18T03:04:25.903Z,11.6
2023-03-18T03:05:28.991Z,11.6
2023-03-18T03:06:31.536Z,11.6
2023-03-18T03:07:35.013Z,11.6
2023-03-18T03:08:37.745Z,11.6
2023-03-18T03:09:40.926Z,11.6
2023-03-18T03:10:44.344Z,11.6
2023-03-18T03:11:47.495Z,11.6
2023-03-18T03:12:50.582Z,11.6
2023-03-18T03:13:53.623Z,11.5
2023-03-18T03:14:56.749Z,11.5
2023-03-18T03:16:00.384Z,11.5
2023-03-18T03:17:03.440Z,11.5
2023-03-18T03:18:06.923Z,11.5
2023-03-18T03:19:10.790Z,11.5
2023-03-18T03:20:13.898Z,11.5
2023-03-18T03:21:16.909Z,11.5
2023-03-18T03:22:20.090Z,11.5
2023-03-18T03:23:22.818Z,11.5
2023-03-18T03:24:26.319Z,11.5
2023-03-18T03:25:29.755Z,11.5
2023-03-18T03:26:33.475Z,11.5
2023-03-18T03:27:36.713Z,11.5
2023-03-18T03:28:39.526Z,11.5
2023-03-18T03:29:42.528Z,11.5
2023-03-18T03:30:45.251Z,11.5
2023-03-18T03:31:48.485Z,11.4
2023-03-18T03:32:52.156Z,11.4
2023-03-18T03:33:55.517Z,11.4
2023-03-18T03:34:59.697Z,11.4
2023-03-18T03:36:03.748Z,11.4
2023-03-18T03:37:06.493Z,11.4
2023-03-18T03:38:09.370Z,11.4
2023-03-18T03:39:11.897Z,11.4
2023-03-18T03:40:14.737Z,11.4
2023-03-18T03:41:17.839Z,11.4
2023-03-18T03:42:20.825Z,11.4
2023-03-18T03:43:23.547Z,11.4
2023-03-18T03:44:27.020Z,11.4
2023-03-18T03:45:29.726Z,11.4
2023-03-18T03:46:32.639Z,11.4
2023-03-18T03:47:35.268Z,11.4
2023-03-18T03:48:37.977Z,11.3
2023-03-18T03:49:41.564Z,11.3
2023-03-18T03:50:45.547Z,11.3
2023-03-18T03:51:49.024Z,11.3
2023-03-18T03:52:52.212Z,11.3
2023-03-18T03:53:55.204Z,11.3
2023-03-18T03:54:58.259Z,11.2
2023-03-18T03:56:01.421Z,11.2
2023-03-18T03:57:04.881Z,11.2
2023-03-18T03:58:08.361Z,11.2
2023-03-18T03:59:11.454Z,11.2
2023-03-18T04:00:14.228Z,11.2
2023-03-18T04:01:17.405Z,11.2
2023-03-18T04:02:20.595Z,11.2
2023-03-18T04:03:23.823Z,11.2
2023-03-18T04:04:26.360Z,11.2
2023-03-18T04:05:30.650Z,11.2
2023-03-18T04:06:34.428Z,11.2
2023-03-18T04:07:36.608Z,11.3
2023-03-18T04:08:39.396Z,11.2
2023-03-18T04:09:42.128Z,11.3
2023-03-18T04:10:45.245Z,11.3
2023-03-18T04:11:48.320Z,11.3
2023-03-18T04:12:51.414Z,11.3
2023-03-18T04:13:54.403Z,11.4
2023-03-18T04:14:57.147Z,11.4
2023-03-18T04:16:00.477Z,11.4
2023-03-18T04:17:03.235Z,11.4
2023-03-18T04:18:07.247Z,11.4
2023-03-18T04:19:10.361Z,11.4
2023-03-18T04:20:13.604Z,11.5
2023-03-18T04:21:17.790Z,11.5
2023-03-18T04:22:21.141Z,11.5
2023-03-18T04:23:24.166Z,11.5
2023-03-18T04:24:27.352Z,11.5
2023-03-18T04:25:30.707Z,11.5
2023-03-18T04:26:34.223Z,11.5
2023-03-18T04:27:37.324Z,11.5
2023-03-18T04:28:39.910Z,11.5
2023-03-18T04:29:43.064Z,11.4
2023-03-18T04:30:45.856Z,11.4
2023-03-18T04:31:49.229Z,11.4
2023-03-18T04:32:53.357Z,11.4
2023-03-18T04:33:56.526Z,11.4
2023-03-18T04:34:59.863Z,11.4
2023-03-18T04:36:02.760Z,11.4
2023-03-18T04:37:06.440Z,11.3
2023-03-18T04:38:09.913Z,11.3
2023-03-18T04:39:12.983Z,11.3
2023-03-18T04:40:16.261Z,11.2
2023-03-18T04:41:19.086Z,11.3
2023-03-18T04:42:21.885Z,11.2
2023-03-18T04:43:24.885Z,11.2
2023-03-18T04:44:28.004Z,11.2
2023-03-18T04:45:31.370Z,11.2
2023-03-18T04:46:34.988Z,11.2
2023-03-18T04:47:37.955Z,11.2
2023-03-18T04:48:40.511Z,11.2
2023-03-18T04:49:42.999Z,11.2
2023-03-18T04:50:46.108Z,11.2
2023-03-18T04:51:49.582Z,11.2
2023-03-18T04:52:53.621Z,11.2
2023-03-18T04:53:57.655Z,11.2
2023-03-18T04:55:02.153Z,11.2
2023-03-18T04:56:05.168Z,11.2
2023-03-18T04:57:08.064Z,11.3
2023-03-18T04:58:11.166Z,11.3
2023-03-18T04:59:13.999Z,11.3
2023-03-18T05:00:16.811Z,11.3
2023-03-18T05:01:19.933Z,11.3
2023-03-18T05:02:24.185Z,11.3
2023-03-18T05:03:27.910Z,11.3
2023-03-18T05:04:30.964Z,11.3
2023-03-18T05:05:38.508Z,11.3
2023-03-18T05:06:41.940Z,11.2
2023-03-18T05:07:45.023Z,11.2
2023-03-18T05:08:48.766Z,11.3
2023-03-18T05:09:52.337Z,11.2
2023-03-18T05:10:55.883Z,11.2
2023-03-18T05:11:59.226Z,11.2
2023-03-18T05:13:02.566Z,11.2
2023-03-18T05:14:05.630Z,11.2
2023-03-18T05:15:09.655Z,11.2
2023-03-18T05:16:15.316Z,11.2
2023-03-18T05:17:19.156Z,11.2
2023-03-18T05:18:22.174Z,11.2
2023-03-18T05:19:25.649Z,11.2
2023-03-18T05:20:28.417Z,11.2
2023-03-18T05:21:32.293Z,11.2
2023-03-18T05:22:35.804Z,11.2
2023-03-18T05:23:39.004Z,11.2
2023-03-18T05:24:42.513Z,11.2
2023-03-18T05:25:46.397Z,11.2
2023-03-18T05:26:49.423Z,11.2
2023-03-18T05:27:52.573Z,11.2
2023-03-18T05:28:55.076Z,11.2
2023-03-18T05:29:58.001Z,11.2
2023-03-18T05:31:00.733Z,11.2
2023-03-18T05:32:03.856Z,11.3
2023-03-18T05:33:08.321Z,11.2
2023-03-18T05:34:11.642Z,11.2
2023-03-18T05:35:14.943Z,11.2
2023-03-18T05:36:18.022Z,11.3
2023-03-18T05:37:22.038Z,11.3
2023-03-18T05:38:25.036Z,11.3
2023-03-18T05:39:28.074Z,11.3
2023-03-18T05:40:31.173Z,11.3
2023-03-18T05:41:35.333Z,11.2
2023-03-18T05:42:57.029Z,11.2
2023-03-18T05:44:00.140Z,11.2
2023-03-18T05:45:02.934Z,11.2
2023-03-18T05:46:05.526Z,11.2
2023-03-18T05:47:09.296Z,11.3
2023-03-18T05:48:12.672Z,11.2
2023-03-18T05:49:14.839Z,11.2
2023-03-18T05:50:18.109Z,11.3
2023-03-18T05:51:20.341Z,11.3
2023-03-18T05:52:23.136Z,11.3
2023-03-18T05:53:26.149Z,11.3
2023-03-18T05:54:29.156Z,11.3
2023-03-18T05:55:32.505Z,11.3
2023-03-18T05:56:36.420Z,11.3
2023-03-18T05:57:40.178Z,11.3
2023-03-18T05:58:43.866Z,11.3
2023-03-18T05:59:47.581Z,11.3
2023-03-18T06:00:50.696Z,11.3
2023-03-18T06:01:54.370Z,11.4
2023-03-18T06:02:58.112Z,11.4
2023-03-18T06:04:01.194Z,11.4
2023-03-18T06:05:04.681Z,11.4
2023-03-18T06:06:07.790Z,11.4
2023-03-18T06:07:11.299Z,11.4
2023-03-18T06:08:14.575Z,11.4
2023-03-18T06:09:17.643Z,11.5
2023-03-18T06:10:20.662Z,11.5
2023-03-18T06:11:24.138Z,11.5
2023-03-18T06:12:28.403Z,11.5
2023-03-18T06:13:32.924Z,11.5
2023-03-18T06:14:36.927Z,11.5
2023-03-18T06:15:40.017Z,11.5
2023-03-18T06:16:44.057Z,11.5
2023-03-18T06:17:47.806Z,11.6
2023-03-18T06:18:51.189Z,11.6
2023-03-18T06:19:54.681Z,11.6
2023-03-18T06:20:57.406Z,11.6
2023-03-18T06:22:00.399Z,11.6
2023-03-18T06:23:03.385Z,11.6
2023-03-18T06:24:06.615Z,11.6
2023-03-18T06:25:10.342Z,11.6
2023-03-18T06:26:13.290Z,11.6
2023-03-18T06:27:16.191Z,11.7
2023-03-18T06:28:19.647Z,11.6
2023-03-18T06:29:23.455Z,11.6
2023-03-18T06:30:26.948Z,11.7
2023-03-18T06:31:30.106Z,11.7
2023-03-18T06:32:33.625Z,11.7
2023-03-18T06:33:36.887Z,11.7
2023-03-18T06:34:40.304Z,11.7
2023-03-18T06:35:43.454Z,11.7
2023-03-18T06:36:46.385Z,11.7
2023-03-18T06:37:49.456Z,11.7
2023-03-18T06:38:53.166Z,11.8
2023-03-18T06:39:56.017Z,11.7
2023-03-18T06:41:00.024Z,11.8
2023-03-18T06:42:02.720Z,11.8
2023-03-18T06:43:05.759Z,11.8
2023-03-18T06:44:09.212Z,11.8
2023-03-18T06:45:12.881Z,11.8
2023-03-18T06:46:16.054Z,11.8
2023-03-18T06:47:19.025Z,11.8
2023-03-18T06:48:21.453Z,11.8
2023-03-18T06:49:24.482Z,11.8
2023-03-18T06:50:27.565Z,11.8
2023-03-18T06:51:30.469Z,11.9
2023-03-18T06:52:33.892Z,11.9
2023-03-18T06:53:37.622Z,11.9
2023-03-18T06:54:41.409Z,11.9
2023-03-18T06:55:44.480Z,11.9
2023-03-18T06:56:47.547Z,11.9
2023-03-18T06:57:51.268Z,11.9
2023-03-18T06:58:54.398Z,12
2023-03-18T06:59:57.795Z,11.9
2023-03-18T07:01:01.388Z,12
2023-03-18T07:02:04.092Z,12
2023-03-18T07:03:06.282Z,12
2023-03-18T07:04:09.274Z,12
2023-03-18T07:05:11.884Z,12
2023-03-18T07:06:14.339Z,12
2023-03-18T07:07:17.755Z,12.1
2023-03-18T07:08:20.917Z,12
2023-03-18T07:09:24.672Z,12.1
2023-03-18T07:10:28.002Z,12.1
2023-03-18T07:11:30.794Z,12.1
2023-03-18T07:12:33.961Z,12.1
2023-03-18T07:13:36.786Z,12.1
2023-03-18T07:14:39.587Z,12.1
2023-03-18T07:15:43.129Z,12.1
2023-03-18T07:16:47.543Z,12.2
2023-03-18T07:17:51.005Z,12.2
2023-03-18T07:18:53.786Z,12.2
2023-03-18T07:19:57.074Z,12.2
2023-03-18T07:21:00.356Z,12.2
2023-03-18T07:22:03.223Z,12.2
2023-03-18T07:23:06.674Z,12.2
2023-03-18T07:24:09.220Z,12.3
2023-03-18T07:25:12.700Z,12.3
2023-03-18T07:26:16.075Z,12.3
2023-03-18T07:27:18.270Z,12.3
2023-03-18T07:28:21.316Z,12.3
2023-03-18T07:29:24.482Z,12.3
2023-03-18T07:30:27.482Z,12.3
2023-03-18T07:31:31.535Z,12.3
2023-03-18T07:32:35.136Z,12.3
2023-03-18T07:33:38.658Z,12.3
2023-03-18T07:34:42.019Z,12.4
2023-03-18T07:35:45.462Z,12.4
2023-03-18T07:36:48.215Z,12.4
2023-03-18T07:37:51.332Z,12.4
2023-03-18T07:38:54.163Z,12.5
2023-03-18T07:39:57.881Z,12.5
2023-03-18T07:41:00.639Z,12.5
2023-03-18T07:42:03.919Z,12.6
2023-03-18T07:43:07.397Z,12.6
2023-03-18T07:44:10.185Z,12.6
2023-03-18T07:45:13.600Z,12.7
2023-03-18T07:46:16.287Z,12.7
2023-03-18T07:47:20.188Z,12.7
2023-03-18T07:48:23.444Z,12.8
2023-03-18T07:49:27.147Z,12.9
2023-03-18T07:50:30.356Z,12.8
2023-03-18T07:51:33.212Z,12.9
2023-03-18T07:52:36.028Z,12.9
2023-03-18T07:53:39.400Z,13
2023-03-18T07:54:42.409Z,13
2023-03-18T07:55:46.004Z,13
2023-03-18T07:56:49.353Z,13
2023-03-18T07:57:51.942Z,13.1
2023-03-18T07:58:55.399Z,13.1
2023-03-18T07:59:58.802Z,13.1
2023-03-18T08:01:01.286Z,13.2
2023-03-18T08:02:04.583Z,13.2
2023-03-18T08:03:08.248Z,13.3
2023-03-18T08:04:12.760Z,13.3
2023-03-18T08:05:16.715Z,13.4
2023-03-18T08:06:21.794Z,13.4
2023-03-18T08:07:25.288Z,13.5
2023-03-18T08:08:28.264Z,13.5
2023-03-18T08:09:31.068Z,13.6
2023-03-18T08:10:34.067Z,13.6
2023-03-18T08:11:37.524Z,13.6
2023-03-18T08:12:54.554Z,13.7
2023-03-18T08:13:58.495Z,13.8
2023-03-18T08:15:02.605Z,13.8
2023-03-18T08:16:05.989Z,13.9
2023-03-18T08:17:09.561Z,13.9
2023-03-18T08:18:13.334Z,13.9
2023-03-18T08:19:16.861Z,14
2023-03-18T08:20:20.562Z,14.1
2023-03-18T08:21:23.598Z,14.1
2023-03-18T08:22:26.672Z,14.2
2023-03-18T08:23:29.712Z,14.2
2023-03-18T08:24:33.001Z,14.3
2023-03-18T08:25:36.492Z,14.3
2023-03-18T08:26:39.360Z,14.4
2023-03-18T08:27:42.459Z,14.4
2023-03-18T08:28:45.651Z,14.4
2023-03-18T08:29:49.300Z,14.5
2023-03-18T08:30:52.648Z,14.5
2023-03-18T08:31:55.693Z,14.5
2023-03-18T08:32:58.683Z,14.6
2023-03-18T08:34:02.650Z,14.6
2023-03-18T08:35:06.427Z,14.6
2023-03-18T08:36:09.847Z,14.7
2023-03-18T08:37:12.624Z,14.7
2023-03-18T08:38:16.004Z,14.7
2023-03-18T08:39:18.451Z,14.7
2023-03-18T08:40:21.327Z,14.7
2023-03-18T08:41:24.702Z,14.7
2023-03-18T08:42:27.420Z,14.7
2023-03-18T08:43:30.218Z,14.7
2023-03-18T08:44:33.646Z,14.8
2023-03-18T08:45:37.041Z,14.8
2023-03-18T08:46:40.389Z,14.8
2023-03-18T08:47:43.477Z,14.8
2023-03-18T08:48:46.946Z,14.8
2023-03-18T08:49:52.280Z,14.8
2023-03-18T08:50:56.118Z,14.8
2023-03-18T08:52:00.186Z,14.8
2023-03-18T08:53:03.005Z,14.9
2023-03-18T08:54:06.036Z,14.9
2023-03-18T08:55:09.263Z,14.9
2023-03-18T08:56:13.270Z,15
2023-03-18T08:57:16.691Z,15
2023-03-18T08:58:20.438Z,15.1
2023-03-18T08:59:23.716Z,15.1
2023-03-18T09:00:27.027Z,15.2
2023-03-18T09:01:30.681Z,15.2
2023-03-18T09:02:33.305Z,15.3
2023-03-18T09:03:36.595Z,15.4
2023-03-18T09:04:40.683Z,15.4
2023-03-18T09:05:44.087Z,15.5
2023-03-18T09:06:47.744Z,15.6
2023-03-18T09:07:51.428Z,15.6
2023-03-18T09:08:55.219Z,15.6
2023-03-18T09:09:58.225Z,15.6
2023-03-18T09:11:01.152Z,15.6
2023-03-18T09:12:04.803Z,15.7
2023-03-18T09:13:07.947Z,15.7
2023-03-18T09:14:11.045Z,15.7
2023-03-18T09:15:14.110Z,15.8
2023-03-18T09:16:17.948Z,15.8
2023-03-18T09:17:53.740Z,15.9
2023-03-18T09:19:15.537Z,16
2023-03-18T09:20:18.422Z,16.1
2023-03-18T09:21:21.566Z,16.2
2023-03-18T09:22:25.356Z,16.3
2023-03-18T09:23:28.726Z,16.3
2023-03-18T09:24:31.836Z,16.4
2023-03-18T09:25:35.656Z,16.5
2023-03-18T09:26:38.113Z,16.5
2023-03-18T09:27:41.187Z,16.6
2023-03-18T09:28:43.986Z,16.6
2023-03-18T09:29:47.006Z,16.6
2023-03-18T09:30:49.802Z,16.6
2023-03-18T09:31:52.473Z,16.7
2023-03-18T09:32:56.098Z,16.7
2023-03-18T09:33:59.587Z,16.7
2023-03-18T09:35:03.294Z,16.8
2023-03-18T09:36:06.960Z,16.8
2023-03-18T09:37:10.322Z,16.8
2023-03-18T09:38:14.135Z,16.9
2023-03-18T09:39:17.430Z,16.9
2023-03-18T09:40:20.778Z,16.9
2023-03-18T09:41:24.583Z,17
2023-03-18T09:42:27.305Z,17
2023-03-18T09:43:30.656Z,16.9
2023-03-18T09:44:34.382Z,16.9
2023-03-18T09:45:36.946Z,16.9
2023-03-18T09:46:39.934Z,16.8
2023-03-18T09:47:44.167Z,16.8
2023-03-18T09:48:47.794Z,16.7
2023-03-18T09:49:50.317Z,16.7
2023-03-18T09:50:53.401Z,16.6
2023-03-18T09:51:56.693Z,16.6
2023-03-18T09:53:00.186Z,16.6
2023-03-18T09:54:03.797Z,16.5
2023-03-18T09:55:06.915Z,16.5
2023-03-18T09:56:09.968Z,16.5
2023-03-18T09:57:12.970Z,16.5
2023-03-18T09:58:15.802Z,16.4
2023-03-18T09:59:19.329Z,16.5
2023-03-18T10:00:21.644Z,16.4
2023-03-18T10:01:25.204Z,16.5
2023-03-18T10:02:29.202Z,16.5
2023-03-18T10:03:31.987Z,16.5
2023-03-18T10:04:35.418Z,16.5
2023-03-18T10:05:38.439Z,16.5
2023-03-18T10:06:41.242Z,16.5
2023-03-18T10:07:44.225Z,16.5
2023-03-18T10:08:47.171Z,16.6
2023-03-18T10:09:50.981Z,16.6
2023-03-18T10:10:54.341Z,16.6
2023-03-18T10:11:57.365Z,16.6
2023-03-18T10:13:00.440Z,16.6
2023-03-18T10:14:03.879Z,16.6
2023-03-18T10:15:06.901Z,16.6
2023-03-18T10:16:10.672Z,16.6
2023-03-18T10:17:13.969Z,16.6
2023-03-18T10:18:17.097Z,16.6
2023-03-18T10:19:20.579Z,16.7
2023-03-18T10:20:23.353Z,16.7
2023-03-18T10:21:26.941Z,16.8
2023-03-18T10:22:30.115Z,16.8
2023-03-18T10:23:33.777Z,16.8
2023-03-18T10:24:37.436Z,16.8
2023-03-18T10:25:41.267Z,16.9
2023-03-18T10:26:44.273Z,16.9
2023-03-18T10:27:47.750Z,16.9
2023-03-18T10:28:51.193Z,17
2023-03-18T10:29:54.101Z,17.1
2023-03-18T10:30:57.233Z,17.2
2023-03-18T10:31:59.972Z,17.4
2023-03-18T10:33:03.235Z,17.4
2023-03-18T10:34:06.624Z,17.6
2023-03-18T10:35:09.716Z,17.7
2023-03-18T10:36:13.031Z,17.9
2023-03-18T10:37:16.661Z,18.1
2023-03-18T10:38:19.961Z,18.3
2023-03-18T10:39:23.493Z,18.5
2023-03-18T10:40:26.977Z,18.6
2023-03-18T10:41:30.611Z,18.8
2023-03-18T10:42:34.032Z,18.9
2023-03-18T10:43:36.743Z,19
2023-03-18T10:44:40.393Z,19.1
2023-03-18T10:45:43.892Z,19.1
2023-03-18T10:46:46.724Z,19.2
2023-03-18T10:47:50.737Z,19.2
2023-03-18T10:48:53.816Z,19.2
2023-03-18T10:49:56.940Z,19.2
2023-03-18T10:51:00.276Z,19.1
2023-03-18T10:52:03.450Z,19
2023-03-18T10:53:06.726Z,19
2023-03-18T10:54:09.530Z,18.9
2023-03-18T10:55:12.709Z,18.8
2023-03-18T10:56:15.904Z,18.8
2023-03-18T10:57:19.274Z,18.8
2023-03-18T10:58:22.761Z,18.7
2023-03-18T10:59:26.058Z,18.7
2023-03-18T11:00:28.885Z,18.6
2023-03-18T11:01:33.473Z,18.6
2023-03-18T11:02:36.890Z,18.5
2023-03-18T11:03:40.143Z,18.5
2023-03-18T11:04:43.572Z,18.4
2023-03-18T11:05:46.828Z,18.4
2023-03-18T11:06:49.917Z,18.4
2023-03-18T11:07:52.904Z,18.3
2023-03-18T11:08:56.173Z,18.3
2023-03-18T11:09:59.892Z,18.2
2023-03-18T11:11:03.705Z,18.2
2023-03-18T11:12:07.369Z,18.1
2023-03-18T11:13:11.288Z,18.1
2023-03-18T11:14:14.671Z,18.1
2023-03-18T11:15:18.056Z,18
2023-03-18T11:16:20.669Z,18
2023-03-18T11:17:23.978Z,18
2023-03-18T11:18:27.156Z,17.9
2023-03-18T11:19:30.570Z,17.9
2023-03-18T11:20:35.618Z,17.9
2023-03-18T11:21:39.096Z,17.9
2023-03-18T11:22:42.552Z,17.9
2023-03-18T11:23:46.006Z,17.9
2023-03-18T11:24:48.967Z,17.9
2023-03-18T11:25:52.709Z,17.9
2023-03-18T11:26:55.912Z,17.9
2023-03-18T11:27:59.651Z,17.8
2023-03-18T11:29:03.286Z,17.8
2023-03-18T11:30:06.432Z,17.7
2023-03-18T11:31:09.134Z,17.7
2023-03-18T11:32:12.276Z,17.7
2023-03-18T11:33:15.805Z,17.6
2023-03-18T11:34:18.675Z,17.6
2023-03-18T11:35:21.668Z,17.5
2023-03-18T11:36:24.873Z,17.4
2023-03-18T11:37:28.225Z,17.4
2023-03-18T11:38:31.605Z,17.4
2023-03-18T11:39:35.445Z,17.4
2023-03-18T11:40:39.077Z,17.4
2023-03-18T11:41:42.174Z,17.3
2023-03-18T11:42:44.869Z,17.3
2023-03-18T11:43:48.220Z,17.3
2023-03-18T11:44:51.459Z,17.2
2023-03-18T11:45:54.777Z,17.3
2023-03-18T11:46:58.337Z,17.2
2023-03-18T11:48:01.742Z,17.2
2023-03-18T11:49:05.140Z,17.2
2023-03-18T11:50:07.646Z,17.2
2023-03-18T11:51:11.288Z,17.2
2023-03-18T11:52:14.398Z,17.2
2023-03-18T11:53:17.851Z,17.2
2023-03-18T11:54:21.036Z,17.1
2023-03-18T11:55:24.746Z,17.1
2023-03-18T11:56:28.125Z,17.1
2023-03-18T11:57:31.573Z,17.1
2023-03-18T11:58:34.130Z,17.1
2023-03-18T11:59:37.219Z,17.1
2023-03-18T12:00:40.723Z,17.1
2023-03-18T12:01:44.018Z,17.2
2023-03-18T12:02:46.795Z,17.2
2023-03-18T12:03:49.685Z,17.2
2023-03-18T12:04:53.650Z,17.2
2023-03-18T12:05:57.566Z,17.3
2023-03-18T12:07:01.004Z,17.3
2023-03-18T12:08:04.302Z,17.4
2023-03-18T12:09:07.639Z,17.4
2023-03-18T12:10:11.043Z,17.5
2023-03-18T12:11:14.129Z,17.6
2023-03-18T12:12:16.851Z,17.8
2023-03-18T12:13:19.869Z,18
2023-03-18T12:14:23.411Z,18.1
2023-03-18T12:15:27.177Z,18.3
2023-03-18T12:16:31.140Z,18.5
2023-03-18T12:17:34.540Z,18.6
2023-03-18T12:18:37.867Z,18.9
2023-03-18T12:19:40.739Z,19.1
2023-03-18T12:20:43.902Z,19.2
2023-03-18T12:21:46.647Z,19.4
2023-03-18T12:22:49.199Z,19.6
2023-03-18T12:23:51.909Z,19.8
2023-03-18T12:24:55.289Z,19.9
2023-03-18T12:25:58.407Z,20
2023-03-18T12:27:01.142Z,20.1
2023-03-18T12:28:04.138Z,20.2
2023-03-18T12:29:07.277Z,20.2
2023-03-18T12:30:09.690Z,20.2
2023-03-18T12:31:13.076Z,20.2
2023-03-18T12:32:16.739Z,20.2
2023-03-18T12:33:19.919Z,20.1
2023-03-18T12:34:22.919Z,20.1
2023-03-18T12:35:26.744Z,20.1
2023-03-18T12:36:29.657Z,20.1
2023-03-18T12:37:32.492Z,20
2023-03-18T12:38:36.511Z,20
2023-03-18T12:39:39.300Z,20
2023-03-18T12:40:41.812Z,19.9
2023-03-18T12:41:45.192Z,19.9
2023-03-18T12:42:47.919Z,19.8
2023-03-18T12:43:51.283Z,19.7
2023-03-18T12:44:54.696Z,19.7
2023-03-18T12:45:57.760Z,19.6
2023-03-18T12:47:01.209Z,19.6
2023-03-18T12:48:05.379Z,19.5
2023-03-18T12:49:07.841Z,19.5
2023-03-18T12:50:10.929Z,19.5
2023-03-18T12:51:13.937Z,19.4
2023-03-18T12:52:17.311Z,19.4
2023-03-18T12:53:20.735Z,19.4
2023-03-18T12:54:24.192Z,19.4
2023-03-18T12:55:27.264Z,19.4
2023-03-18T12:56:30.711Z,19.4
2023-03-18T12:57:34.383Z,19.5
2023-03-18T12:58:37.733Z,19.5
2023-03-18T12:59:40.901Z,19.5
2023-03-18T13:00:44.247Z,19.5
2023-03-18T13:01:47.120Z,19.4
2023-03-18T13:02:51.072Z,19.4
2023-03-18T13:03:55.324Z,19.4
2023-03-18T13:04:58.343Z,19.4
2023-03-18T13:06:01.711Z,19.4
2023-03-18T13:07:04.806Z,19.5
2023-03-18T13:08:08.523Z,19.5
2023-03-18T13:09:12.521Z,19.5
2023-03-18T13:10:14.814Z,19.5
2023-03-18T13:11:17.987Z,19.6
2023-03-18T13:12:21.720Z,19.7
2023-03-18T13:13:24.858Z,19.7
2023-03-18T13:14:28.127Z,19.7
2023-03-18T13:15:33.005Z,19.7
2023-03-18T13:16:37.604Z,19.7
2023-03-18T13:17:40.850Z,19.7
2023-03-18T13:18:44.553Z,19.7
2023-03-18T13:19:48.469Z,19.7
2023-03-18T13:20:52.235Z,19.7
2023-03-18T13:21:55.747Z,19.8
2023-03-18T13:22:59.446Z,19.8
2023-03-18T13:24:02.563Z,19.9
2023-03-18T13:25:05.698Z,19.9
2023-03-18T13:26:08.513Z,19.9
2023-03-18T13:27:11.914Z,19.9
2023-03-18T13:28:15.085Z,19.9
2023-03-18T13:29:18.465Z,19.9
2023-03-18T13:30:21.436Z,20
2023-03-18T13:31:24.465Z,20.2
2023-03-18T13:32:27.794Z,20.2
2023-03-18T13:33:31.301Z,20.4
2023-03-18T13:34:34.399Z,20.6
2023-03-18T13:35:38.106Z,20.8
2023-03-18T13:36:41.221Z,21
2023-03-18T13:37:44.241Z,21.1
2023-03-18T13:38:47.394Z,21.3
2023-03-18T13:39:50.198Z,21.4
2023-03-18T13:40:53.597Z,21.6
2023-03-18T13:41:55.983Z,21.6
2023-03-18T13:42:58.773Z,21.7
2023-03-18T13:44:01.301Z,21.7
2023-03-18T13:45:04.027Z,21.8
2023-03-18T13:46:06.997Z,21.9
2023-03-18T13:47:09.999Z,21.9
2023-03-18T13:48:13.377Z,22.1
2023-03-18T13:49:16.201Z,22.1
2023-03-18T13:50:20.328Z,22.2
2023-03-18T13:51:24.161Z,22.3
2023-03-18T13:52:27.736Z,22.4
2023-03-18T13:53:31.115Z,22.5
2023-03-18T13:54:34.557Z,22.7
2023-03-18T13:55:38.191Z,22.8
2023-03-18T13:56:40.992Z,23
2023-03-18T13:57:43.439Z,23.1
2023-03-18T13:58:46.585Z,23.2
2023-03-18T13:59:49.721Z,23.3
2023-03-18T14:00:52.715Z,23.4
2023-03-18T14:01:56.221Z,23.5
2023-03-18T14:02:59.076Z,23.6
2023-03-18T14:04:01.790Z,23.6
2023-03-18T14:05:05.192Z,23.7
2023-03-18T14:06:08.891Z,23.8
2023-03-18T14:07:12.483Z,23.8
2023-03-18T14:08:15.600Z,23.9
2023-03-18T14:09:18.607Z,23.9